createdAt,value
2017-10-13T00:01:55.044Z,16.30
2017-10-13T00:05:06.372Z,17.00
2017-10-13T00:08:16.959Z,16.20
2017-10-13T00:11:28.618Z,18.30
2017-10-13T00:14:40.072Z,15.23
2017-10-13T00:17:52.723Z,16.87
2017-10-13T00:21:03.385Z,17.00
2017-10-13T00:24:15.108Z,17.20
2017-10-13T00:27:25.750Z,16.10
2017-10-13T00:30:36.435Z,17.23
2017-10-13T00:33:49.948Z,17.37
2017-10-13T00:37:00.713Z,17.73
2017-10-13T00:40:11.086Z,18.83
2017-10-13T00:43:22.669Z,17.57
2017-10-13T00:49:16.467Z,18.40
2017-10-13T00:52:27.251Z,17.50
2017-10-13T00:55:37.819Z,19.10
2017-10-13T00:58:48.702Z,17.70
2017-10-13T01:02:00.026Z,14.87
2017-10-13T01:05:10.601Z,15.90
2017-10-13T01:08:23.266Z,15.20
2017-10-13T01:11:34.064Z,14.00
2017-10-13T01:14:44.676Z,14.50
2017-10-13T01:21:12.156Z,14.10
2017-10-13T01:24:22.337Z,13.33
2017-10-13T01:27:32.471Z,13.80
2017-10-13T01:30:42.765Z,14.27
2017-10-13T01:33:53.446Z,11.03
2017-10-13T01:37:04.441Z,12.27
2017-10-13T01:40:15.061Z,11.30
2017-10-13T01:43:28.497Z,10.60
2017-10-13T01:50:10.084Z,10.43
2017-10-13T01:53:15.676Z,10.80
2017-10-13T01:56:21.414Z,8.50
2017-10-13T01:59:28.252Z,8.97
2017-10-13T02:02:34.856Z,9.60
2017-10-13T02:05:42.592Z,9.07
2017-10-13T02:08:50.452Z,10.13
2017-10-13T02:11:56.604Z,8.73
2017-10-13T02:15:04.551Z,9.03
2017-10-13T02:18:10.416Z,9.83
2017-10-13T02:21:16.133Z,9.90
2017-10-13T02:24:25.720Z,10.20
2017-10-13T02:27:33.709Z,9.30
2017-10-13T02:30:40.415Z,9.63
2017-10-13T02:33:49.899Z,8.93
2017-10-13T02:36:56.593Z,9.07
2017-10-13T02:40:02.104Z,7.70
2017-10-13T02:43:07.825Z,7.93
2017-10-13T02:46:14.569Z,7.30
2017-10-13T02:49:20.426Z,8.43
2017-10-13T02:52:26.224Z,8.67
2017-10-13T02:55:32.764Z,9.77
2017-10-13T02:58:38.327Z,8.73
2017-10-13T03:01:44.048Z,8.43
2017-10-13T03:04:50.700Z,9.47
2017-10-13T03:07:57.361Z,7.97
2017-10-13T03:11:03.881Z,9.30
2017-10-13T03:14:09.396Z,8.47
2017-10-13T03:17:18.148Z,9.90
2017-10-13T03:20:24.049Z,8.20
2017-10-13T03:23:30.977Z,9.33
2017-10-13T03:26:36.852Z,7.97
2017-10-13T03:29:42.626Z,7.67
2017-10-13T03:32:48.261Z,6.83
2017-10-13T03:35:55.003Z,6.73
2017-10-13T03:39:01.790Z,7.33
2017-10-13T03:42:08.529Z,7.80
2017-10-13T03:45:14.221Z,6.70
2017-10-13T03:48:19.725Z,7.00
2017-10-13T03:51:25.426Z,7.43
2017-10-13T03:54:31.980Z,7.80
2017-10-13T03:57:38.708Z,6.60
2017-10-13T04:00:45.220Z,7.43
2017-10-13T04:03:51.772Z,7.37
2017-10-13T04:06:59.466Z,6.93
2017-10-13T04:10:06.193Z,7.10
2017-10-13T04:13:11.870Z,7.20
2017-10-13T04:16:17.566Z,7.60
2017-10-13T04:19:24.319Z,7.03
2017-10-13T04:22:29.977Z,7.43
2017-10-13T04:25:35.693Z,6.10
2017-10-13T04:28:41.249Z,6.70
2017-10-13T04:31:46.815Z,7.00
2017-10-13T04:34:52.578Z,6.90
2017-10-13T04:37:58.140Z,7.60
2017-10-13T04:41:03.838Z,7.10
2017-10-13T04:44:09.548Z,7.67
2017-10-13T04:47:16.218Z,6.80
2017-10-13T04:50:22.995Z,7.33
2017-10-13T04:53:28.798Z,8.23
2017-10-13T04:56:34.384Z,5.97
2017-10-13T04:59:40.162Z,7.00
2017-10-13T05:02:46.859Z,7.57
2017-10-13T05:05:52.888Z,6.70
2017-10-13T05:08:58.642Z,6.20
2017-10-13T05:12:05.481Z,7.07
2017-10-13T05:15:11.269Z,6.93
2017-10-13T05:18:18.086Z,6.00
2017-10-13T05:21:24.056Z,6.00
2017-10-13T05:24:29.867Z,6.20
2017-10-13T05:27:36.554Z,6.50
2017-10-13T05:30:43.421Z,6.60
2017-10-13T05:33:49.168Z,6.40
2017-10-13T05:36:54.704Z,6.30
2017-10-13T05:40:02.434Z,5.97
2017-10-13T05:43:09.376Z,5.70
2017-10-13T05:46:16.059Z,6.83
2017-10-13T05:49:21.827Z,6.13
2017-10-13T05:52:28.483Z,6.77
2017-10-13T05:55:34.303Z,6.53
2017-10-13T05:58:39.776Z,6.20
2017-10-13T06:01:45.538Z,5.70
2017-10-13T06:04:51.231Z,5.57
2017-10-13T06:07:58.852Z,5.73
2017-10-13T06:11:05.579Z,5.67
2017-10-13T06:14:11.437Z,5.13
2017-10-13T06:17:24.344Z,5.87
2017-10-13T06:20:29.949Z,6.00
2017-10-13T06:23:36.613Z,5.90
2017-10-13T06:26:42.132Z,5.50
2017-10-13T06:29:47.698Z,5.67
2017-10-13T06:32:54.369Z,6.13
2017-10-13T06:36:01.038Z,5.43
2017-10-13T06:39:07.581Z,5.70
2017-10-13T06:42:14.417Z,4.70
2017-10-13T06:45:21.932Z,5.57
2017-10-13T06:48:27.626Z,5.40
2017-10-13T06:51:34.475Z,5.97
2017-10-13T06:54:43.306Z,5.50
2017-10-13T06:57:48.649Z,5.73
2017-10-13T07:00:54.569Z,5.53
2017-10-13T07:04:01.252Z,5.83
2017-10-13T07:10:26.594Z,5.03
2017-10-13T07:13:33.247Z,5.10
2017-10-13T07:16:39.896Z,4.97
2017-10-13T07:19:47.702Z,5.40
2017-10-13T07:22:54.337Z,5.03
2017-10-13T07:29:00.125Z,5.30
2017-10-13T07:32:07.896Z,5.17
2017-10-13T07:35:19.482Z,5.27
2017-10-13T07:38:25.463Z,4.87
2017-10-13T07:41:31.341Z,4.50
2017-10-13T07:44:38.821Z,5.20
2017-10-13T07:47:44.924Z,5.03
2017-10-13T07:50:50.708Z,5.40
2017-10-13T07:53:56.660Z,5.03
2017-10-13T07:57:03.419Z,5.30
2017-10-13T08:00:10.078Z,5.40
2017-10-13T08:03:23.474Z,5.77
2017-10-13T08:06:32.173Z,5.43
2017-10-13T08:09:39.566Z,4.80
2017-10-13T08:12:46.238Z,5.60
2017-10-13T08:15:51.941Z,4.73
2017-10-13T08:18:58.674Z,5.20
2017-10-13T08:22:06.286Z,5.53
2017-10-13T08:25:12.106Z,5.40
2017-10-13T08:28:18.810Z,5.60
2017-10-13T08:31:24.618Z,4.93
2017-10-13T08:34:36.349Z,5.67
2017-10-13T08:37:43.345Z,6.13
2017-10-13T08:40:48.713Z,5.90
2017-10-13T08:43:55.505Z,5.73
2017-10-13T08:47:03.437Z,5.47
2017-10-13T08:50:10.178Z,5.00
2017-10-13T08:53:20.117Z,4.43
2017-10-13T08:56:25.294Z,5.63
2017-10-13T08:59:31.004Z,5.53
2017-10-13T09:02:39.857Z,6.07
2017-10-13T09:05:45.543Z,4.83
2017-10-13T09:08:52.177Z,5.07
2017-10-13T09:11:58.898Z,5.33
2017-10-13T09:15:04.590Z,5.23
2017-10-13T09:18:19.530Z,5.70
2017-10-13T09:21:35.492Z,5.30
2017-10-13T09:24:43.204Z,5.30
2017-10-13T09:27:49.964Z,4.93
2017-10-13T09:30:57.725Z,5.30
2017-10-13T09:34:03.550Z,5.30
2017-10-13T09:37:11.578Z,5.30
2017-10-13T09:40:17.330Z,4.87
2017-10-13T09:43:22.969Z,5.40
2017-10-13T09:50:39.268Z,5.50
2017-10-13T13:04:22.291Z,6.80
2017-10-13T13:07:29.993Z,7.83
2017-10-13T13:10:37.528Z,7.17
2017-10-13T13:13:44.258Z,7.00
2017-10-13T13:16:50.073Z,6.47
2017-10-13T13:19:57.046Z,7.83
2017-10-13T13:23:03.719Z,6.73
2017-10-13T13:26:09.525Z,7.90
2017-10-13T13:29:16.272Z,6.03
2017-10-13T13:32:22.098Z,6.33
2017-10-13T13:35:28.772Z,6.80
2017-10-13T13:38:35.640Z,6.00
2017-10-13T13:41:44.313Z,5.80
2017-10-13T13:44:50.269Z,6.77
2017-10-13T13:50:46.731Z,6.83
2017-10-13T13:53:55.645Z,7.93
2017-10-13T13:57:01.202Z,6.80
2017-10-13T14:00:08.961Z,5.90
2017-10-13T14:03:22.643Z,6.43
2017-10-13T14:06:31.389Z,6.90
2017-10-13T14:09:37.118Z,6.80
2017-10-13T14:12:42.730Z,7.20
2017-10-13T14:26:34.489Z,7.27
2017-10-13T14:29:40.231Z,7.60
2017-10-13T14:32:46.697Z,7.30
2017-10-13T14:35:52.318Z,7.80
2017-10-13T14:45:02.017Z,8.00
2017-10-13T14:48:07.825Z,7.77
2017-10-13T14:51:25.464Z,8.40
2017-10-13T14:54:31.096Z,7.63
2017-10-13T14:57:36.791Z,8.00
2017-10-13T15:00:42.587Z,8.40
2017-10-13T15:03:48.284Z,8.80
2017-10-13T15:06:54.925Z,9.80
2017-10-13T15:10:00.436Z,8.70
2017-10-13T15:13:06.850Z,10.10
2017-10-13T15:16:12.861Z,10.53
2017-10-13T15:19:18.540Z,10.90
2017-10-13T15:22:26.963Z,10.77
2017-10-13T15:25:37.880Z,10.90
2017-10-13T15:28:49.248Z,10.63
2017-10-13T15:31:58.479Z,11.10
2017-10-13T15:37:10.975Z,10.33
2017-10-13T15:42:23.656Z,10.67
2017-10-13T15:45:33.430Z,10.40
2017-10-13T15:48:39.465Z,11.40
2017-10-13T15:51:51.198Z,11.40
2017-10-13T15:54:59.258Z,10.70
2017-10-13T15:58:07.805Z,10.57
2017-10-13T16:01:18.822Z,11.20
2017-10-13T16:04:28.228Z,11.27
2017-10-13T16:07:33.968Z,11.23
2017-10-13T16:10:39.730Z,11.70
2017-10-13T16:13:47.477Z,13.00
2017-10-13T16:16:54.191Z,12.17
2017-10-13T16:19:59.696Z,13.10
2017-10-13T16:23:05.599Z,13.40
2017-10-13T16:26:12.568Z,13.37
2017-10-13T16:29:20.217Z,13.00
2017-10-13T16:32:26.020Z,12.40
2017-10-13T16:35:33.989Z,12.30
2017-10-13T16:38:39.485Z,13.07
2017-10-13T16:41:45.315Z,13.13
2017-10-13T16:44:52.159Z,12.43
2017-10-13T16:47:58.525Z,13.10
2017-10-13T16:51:04.205Z,12.27
2017-10-13T16:54:11.185Z,12.50
2017-10-13T16:57:19.078Z,13.20
2017-10-13T17:00:25.561Z,13.20
2017-10-13T17:03:31.969Z,13.50
2017-10-13T17:06:37.994Z,14.40
2017-10-13T17:09:44.788Z,13.53
2017-10-13T17:12:51.670Z,14.17
2017-10-13T17:15:58.152Z,14.00
2017-10-13T17:19:04.888Z,14.30
2017-10-13T17:22:10.561Z,15.60
2017-10-13T17:25:17.136Z,15.80
2017-10-13T17:28:23.958Z,18.60
2017-10-13T17:31:29.633Z,17.03
2017-10-13T17:34:36.680Z,18.30
2017-10-13T17:37:44.537Z,16.90
2017-10-13T17:45:55.731Z,17.07
2017-10-13T17:49:01.477Z,16.60
2017-10-13T17:52:09.344Z,17.63
2017-10-13T17:55:15.553Z,17.63
2017-10-13T17:58:24.100Z,17.40
2017-10-13T18:01:30.959Z,16.00
2017-10-13T18:04:37.773Z,17.00
2017-10-13T18:07:45.489Z,17.33
2017-10-13T18:10:53.198Z,17.27
2017-10-13T18:14:00.036Z,19.50
2017-10-13T18:17:06.540Z,20.87
2017-10-13T18:20:12.608Z,20.73
2017-10-13T18:23:19.972Z,19.70
2017-10-13T18:26:27.419Z,20.80
2017-10-13T18:29:35.376Z,18.87
2017-10-13T18:32:42.105Z,21.23
2017-10-13T18:35:48.707Z,21.97
2017-10-13T18:38:54.224Z,22.57
2017-10-13T18:42:04.687Z,22.70
2017-10-13T18:45:11.686Z,25.07
2017-10-13T18:48:25.013Z,27.20
2017-10-13T19:26:35.952Z,16.80
